createdAt,value
2023-10-20T00:02:31.609Z,99043.84
2023-10-20T00:05:18.736Z,99038.38
2023-10-20T00:08:05.998Z,99039.59
2023-10-20T00:10:58.635Z,99031.84
2023-10-20T00:13:45.594Z,99029.97
2023-10-20T00:16:32.696Z,99031.63
2023-10-20T00:19:20.112Z,99046.38
2023-10-20T00:22:07.485Z,99057.63
2023-10-20T00:24:54.394Z,99062.50
2023-10-20T00:27:43.634Z,99058.09
2023-10-20T00:30:30.225Z,99049.69
2023-10-20T00:33:18.217Z,99070.41
2023-10-20T00:36:05.629Z,99060.59
2023-10-20T00:38:52.581Z,99058.03
2023-10-20T00:41:39.550Z,99056.63
2023-10-20T00:44:28.005Z,99043.00
2023-10-20T00:47:16.277Z,99040.91
2023-10-20T00:50:04.034Z,99043.63
2023-10-20T00:52:52.266Z,99033.72
2023-10-20T00:55:39.060Z,99032.91
2023-10-20T00:58:27.360Z,99044.50
2023-10-20T01:01:15.481Z,99031.72
2023-10-20T01:04:02.614Z,99015.00
2023-10-20T01:06:50.617Z,99007.03
2023-10-20T01:09:37.600Z,99008.28
2023-10-20T01:12:24.583Z,99001.59
2023-10-20T01:15:16.171Z,98992.31
2023-10-20T01:18:06.428Z,98994.19
2023-10-20T01:20:53.350Z,98996.47
2023-10-20T01:23:40.317Z,98998.19
2023-10-20T01:26:28.556Z,99000.13
2023-10-20T01:29:15.418Z,98962.16
2023-10-20T01:32:02.425Z,99004.50
2023-10-20T01:34:49.305Z,99007.84
2023-10-20T01:37:36.423Z,99001.97
2023-10-20T01:40:23.717Z,98998.38
2023-10-20T01:43:12.146Z,98993.44
2023-10-20T01:45:59.906Z,98995.28
2023-10-20T01:48:46.633Z,98998.97
2023-10-20T01:51:36.032Z,99009.63
2023-10-20T01:54:22.561Z,99005.22
2023-10-20T01:57:10.326Z,98988.94
2023-10-20T01:59:58.367Z,98984.72
2023-10-20T02:02:45.534Z,98984.16
2023-10-20T02:05:32.380Z,98984.97
2023-10-20T02:08:19.296Z,98981.00
2023-10-20T02:11:06.256Z,98990.50
2023-10-20T02:13:53.062Z,98977.00
2023-10-20T02:16:43.005Z,98983.50
2023-10-20T02:19:29.901Z,98982.03
2023-10-20T02:22:16.885Z,98976.50
2023-10-20T02:25:03.718Z,98978.94
2023-10-20T02:27:51.400Z,98973.19
2023-10-20T02:30:38.288Z,98962.53
2023-10-20T02:33:27.084Z,98973.31
2023-10-20T02:36:18.694Z,98962.97
2023-10-20T02:39:05.679Z,98956.53
2023-10-20T02:41:52.541Z,98947.69
2023-10-20T02:44:40.340Z,98946.03
2023-10-20T02:47:27.360Z,98953.50
2023-10-20T02:50:17.126Z,98961.25
2023-10-20T02:53:04.921Z,98953.75
2023-10-20T02:55:51.926Z,98962.78
2023-10-20T02:58:38.569Z,98951.97
2023-10-20T03:01:25.535Z,98944.38
2023-10-20T03:04:12.711Z,98940.44
2023-10-20T03:07:00.930Z,98935.50
2023-10-20T03:09:48.344Z,98933.91
2023-10-20T03:12:35.506Z,98939.72
2023-10-20T03:15:22.408Z,98932.66
2023-10-20T03:18:09.446Z,98930.38
2023-10-20T03:20:56.374Z,98931.91
2023-10-20T03:23:45.147Z,98935.50
2023-10-20T03:26:32.084Z,98938.91
2023-10-20T03:29:19.192Z,98953.78
2023-10-20T03:32:06.677Z,98940.97
2023-10-20T03:34:53.747Z,98939.28
2023-10-20T03:37:40.538Z,98935.50
2023-10-20T03:40:32.188Z,98918.78
2023-10-20T03:43:21.284Z,98907.28
2023-10-20T03:46:08.457Z,98907.34
2023-10-20T03:48:55.672Z,98909.00
2023-10-20T03:51:49.362Z,98908.31
2023-10-20T03:54:36.284Z,98901.84
2023-10-20T03:57:25.262Z,98899.00
2023-10-20T04:00:29.511Z,98901.63
2023-10-20T04:03:16.530Z,98902.88
2023-10-20T04:06:07.623Z,98892.31
2023-10-20T04:08:54.702Z,98890.66
2023-10-20T04:11:41.833Z,98888.09
2023-10-20T04:14:31.267Z,98876.69
2023-10-20T04:17:18.136Z,98872.28
2023-10-20T04:20:06.658Z,98859.75
2023-10-20T04:22:53.800Z,98853.09
2023-10-20T04:25:45.901Z,98851.72
2023-10-20T04:28:34.532Z,98865.88
2023-10-20T04:31:40.369Z,98857.28
2023-10-20T04:34:45.290Z,98853.94
2023-10-20T04:37:49.749Z,98854.53
2023-10-20T04:40:53.225Z,98851.72
2023-10-20T04:43:43.322Z,98863.25
2023-10-20T04:46:49.213Z,98861.28
2023-10-20T04:49:55.251Z,98867.53
2023-10-20T04:53:00.512Z,98866.38
2023-10-20T04:56:06.906Z,98860.97
2023-10-20T04:58:57.972Z,98864.69
2023-10-20T05:01:49.120Z,98858.44
2023-10-20T05:04:43.827Z,98851.44
2023-10-20T05:07:30.778Z,98846.63
2023-10-20T05:10:21.142Z,98851.59
2023-10-20T05:13:08.390Z,98852.03
2023-10-20T05:15:55.329Z,98828.81
2023-10-20T05:18:43.867Z,98816.75
2023-10-20T05:21:30.591Z,98820.84
2023-10-20T05:24:20.162Z,98828.94
2023-10-20T05:27:08.792Z,98819.19
2023-10-20T05:29:56.025Z,98839.59
2023-10-20T05:32:42.721Z,98837.13
2023-10-20T05:35:30.917Z,98840.09
2023-10-20T05:38:17.752Z,98836.75
2023-10-20T05:41:04.761Z,98847.59
2023-10-20T05:43:54.045Z,98837.63
2023-10-20T05:46:41.765Z,98845.00
2023-10-20T05:49:28.312Z,98858.00
2023-10-20T05:52:16.767Z,98857.22
2023-10-20T05:55:04.785Z,98856.50
2023-10-20T05:57:51.728Z,98852.88
2023-10-20T06:00:59.413Z,98852.84
2023-10-20T06:03:45.376Z,98837.28
2023-10-20T06:06:32.792Z,98830.38
2023-10-20T06:09:21.018Z,98849.09
2023-10-20T06:12:08.505Z,98847.22
2023-10-20T06:14:55.706Z,98854.78
2023-10-20T06:17:43.259Z,98854.00
2023-10-20T06:20:30.040Z,98843.97
2023-10-20T06:23:17.461Z,98826.72
2023-10-20T06:26:05.640Z,98834.44
2023-10-20T06:28:53.248Z,98820.50
2023-10-20T06:31:44.278Z,98817.25
2023-10-20T06:34:35.415Z,98820.03
2023-10-20T06:37:29.780Z,98828.25
2023-10-20T06:40:17.857Z,98837.03
2023-10-20T06:43:06.367Z,98839.13
2023-10-20T06:46:00.686Z,98834.31
2023-10-20T06:48:49.137Z,98838.72
2023-10-20T06:51:37.279Z,98835.66
2023-10-20T06:54:23.948Z,98818.97
2023-10-20T06:57:11.422Z,98792.13
2023-10-20T06:59:59.849Z,98785.00
2023-10-20T07:02:46.969Z,98789.31
2023-10-20T07:05:33.786Z,98770.25
2023-10-20T07:08:20.587Z,98768.66
2023-10-20T07:11:08.097Z,98779.56
2023-10-20T07:13:54.971Z,98789.97
2023-10-20T07:16:43.209Z,98786.91
2023-10-20T07:19:31.923Z,98791.41
2023-10-20T07:22:18.863Z,98786.22
2023-10-20T07:25:06.306Z,98783.09
2023-10-20T07:27:54.132Z,98770.09
2023-10-20T07:30:41.792Z,98773.53
2023-10-20T07:33:31.342Z,98760.28
2023-10-20T07:36:18.265Z,98747.31
2023-10-20T07:39:05.690Z,98743.19
2023-10-20T07:41:53.897Z,98735.88
2023-10-20T07:44:41.504Z,98758.97
2023-10-20T07:47:28.501Z,98758.34
2023-10-20T07:50:16.557Z,98765.69
2023-10-20T07:53:04.976Z,98757.69
2023-10-20T07:55:51.878Z,98751.34
2023-10-20T07:58:38.689Z,98749.00
2023-10-20T08:01:25.816Z,98725.84
2023-10-20T08:04:13.143Z,98722.97
2023-10-20T08:07:02.077Z,98712.56
2023-10-20T08:09:49.113Z,98720.63
2023-10-20T08:12:36.176Z,98710.44
2023-10-20T08:15:23.391Z,98701.22
2023-10-20T08:18:10.355Z,98699.63
2023-10-20T08:21:04.870Z,98706.53
2023-10-20T08:23:52.918Z,98712.28
2023-10-20T08:26:40.619Z,98703.56
2023-10-20T08:29:27.874Z,98701.88
2023-10-20T08:32:14.824Z,98704.19
2023-10-20T08:35:01.783Z,98708.53
2023-10-20T08:37:48.790Z,98701.66
2023-10-20T08:41:01.086Z,98710.56
2023-10-20T08:43:45.334Z,98718.78
2023-10-20T08:46:32.371Z,98727.75
2023-10-20T08:49:20.656Z,98731.06
2023-10-20T08:52:09.668Z,98736.28
2023-10-20T08:54:57.493Z,98733.94
2023-10-20T08:57:46.491Z,98724.69
2023-10-20T09:00:35.301Z,98745.28
2023-10-20T09:03:28.240Z,98734.84
2023-10-20T09:06:16.944Z,98736.34
2023-10-20T09:09:07.308Z,98719.28
2023-10-20T09:11:54.902Z,98716.84
2023-10-20T09:14:43.041Z,98702.31
2023-10-20T09:17:35.360Z,98714.69
2023-10-20T09:20:22.546Z,98706.25
2023-10-20T09:23:14.154Z,98709.22
2023-10-20T09:26:01.366Z,98698.22
2023-10-20T09:28:49.295Z,98701.91
2023-10-20T09:31:38.773Z,98698.97
2023-10-20T09:34:28.596Z,98700.44
2023-10-20T09:37:17.398Z,98708.59
2023-10-20T09:40:07.933Z,98710.72
2023-10-20T09:43:15.093Z,98698.75
2023-10-20T09:46:29.004Z,98690.91
2023-10-20T09:49:21.192Z,98691.56
2023-10-20T09:52:10.312Z,98694.75
2023-10-20T09:54:58.372Z,98685.94
2023-10-20T09:57:45.459Z,98670.47
2023-10-20T10:00:33.437Z,98666.53
2023-10-20T10:03:29.734Z,98662.06
2023-10-20T10:06:18.768Z,98665.84
2023-10-20T10:09:06.427Z,98660.97
2023-10-20T10:12:01.968Z,98652.97
2023-10-20T10:15:00.321Z,98657.00
2023-10-20T10:17:48.512Z,98656.63
2023-10-20T10:20:43.556Z,98668.94
2023-10-20T10:23:31.602Z,98650.81
2023-10-20T10:26:19.502Z,98647.13
2023-10-20T10:29:06.360Z,98645.16
2023-10-20T10:32:08.792Z,98645.00
2023-10-20T10:34:58.212Z,98630.19
2023-10-20T10:37:45.484Z,98633.63
2023-10-20T10:40:34.281Z,98635.13
2023-10-20T10:43:22.678Z,98627.47
2023-10-20T10:46:09.418Z,98639.19
2023-10-20T10:48:57.626Z,98635.25
2023-10-20T10:51:50.694Z,98630.88
2023-10-20T10:54:37.781Z,98628.47
2023-10-20T10:57:26.566Z,98630.03
2023-10-20T11:00:17.283Z,98596.53
2023-10-20T11:03:06.953Z,98620.69
2023-10-20T11:05:54.089Z,98621.28
2023-10-20T11:08:45.616Z,98631.09
2023-10-20T11:11:33.386Z,98611.50
2023-10-20T11:14:22.240Z,98621.78
2023-10-20T11:17:09.449Z,98612.44
2023-10-20T11:19:57.031Z,98616.03
2023-10-20T11:22:44.075Z,98623.28
2023-10-20T11:25:31.437Z,98613.28
2023-10-20T11:28:17.840Z,98609.88
2023-10-20T11:31:07.920Z,98615.81
2023-10-20T11:33:54.791Z,98618.28
2023-10-20T11:36:41.688Z,98616.44
2023-10-20T11:39:28.579Z,98627.22
2023-10-20T11:42:15.784Z,98613.63
2023-10-20T11:45:03.248Z,98620.13
2023-10-20T11:47:52.161Z,98621.13
2023-10-20T11:50:39.250Z,98614.50
2023-10-20T11:53:25.813Z,98615.03
2023-10-20T11:56:14.119Z,98602.84
2023-10-20T11:59:01.648Z,98606.88
2023-10-20T12:01:48.837Z,98610.66
2023-10-20T12:04:37.449Z,98616.78
2023-10-20T12:07:24.768Z,98621.34
2023-10-20T12:10:12.000Z,98607.97
2023-10-20T12:12:59.044Z,98612.94
2023-10-20T12:15:45.931Z,98603.88
2023-10-20T12:18:32.817Z,98609.84
2023-10-20T12:21:21.021Z,98601.38
2023-10-20T12:24:08.865Z,98608.56
2023-10-20T12:26:56.806Z,98604.19
2023-10-20T12:29:44.102Z,98600.75
2023-10-20T12:32:30.881Z,98605.81
2023-10-20T12:35:18.466Z,98608.75
2023-10-20T12:38:07.856Z,98595.16
2023-10-20T12:40:54.645Z,98592.81
2023-10-20T12:43:41.823Z,98584.09
2023-10-20T12:46:29.577Z,98566.75
2023-10-20T12:49:16.763Z,98561.25
2023-10-20T12:52:05.446Z,98553.38
2023-10-20T12:55:28.755Z,98554.69
2023-10-20T12:58:21.970Z,98553.16
2023-10-20T13:01:14.687Z,98546.56
2023-10-20T13:04:10.350Z,98533.56
2023-10-20T13:07:08.046Z,98520.16
2023-10-20T13:10:07.129Z,98517.19
2023-10-20T13:13:11.441Z,98514.22
2023-10-20T13:16:07.907Z,98514.66
2023-10-20T13:19:14.575Z,98518.81
2023-10-20T13:22:15.065Z,98500.81
2023-10-20T13:25:03.564Z,98490.44
2023-10-20T13:27:50.453Z,98496.63
2023-10-20T13:30:39.733Z,98471.47
2023-10-20T13:33:27.294Z,98452.00
2023-10-20T13:36:16.487Z,98452.03
2023-10-20T13:39:17.159Z,98462.78
2023-10-20T13:42:05.703Z,98469.84
2023-10-20T13:44:52.465Z,98461.44
2023-10-20T13:47:40.940Z,98465.06
2023-10-20T13:50:27.727Z,98463.28
2023-10-20T13:53:23.108Z,98456.88
2023-10-20T13:56:12.590Z,98444.28
2023-10-20T13:59:03.503Z,98432.13
2023-10-20T14:01:54.976Z,98433.34
2023-10-20T14:04:46.571Z,98432.13
2023-10-20T14:07:37.654Z,98407.31
2023-10-20T14:10:25.420Z,98402.00
2023-10-20T14:13:12.550Z,98413.00
2023-10-20T14:15:59.679Z,98364.94
2023-10-20T14:18:46.246Z,98400.19
2023-10-20T14:21:34.651Z,98391.31
2023-10-20T14:24:22.110Z,98394.88
2023-10-20T14:27:08.990Z,98404.00
2023-10-20T14:29:56.893Z,98411.41
2023-10-20T14:32:43.828Z,98415.53
2023-10-20T14:35:30.672Z,98435.94
2023-10-20T14:38:18.915Z,98416.25
2023-10-20T14:41:08.776Z,98411.09
2023-10-20T14:43:55.381Z,98411.94
2023-10-20T14:46:45.078Z,98416.28
2023-10-20T14:49:33.599Z,98408.78
2023-10-20T14:52:20.706Z,98421.56
2023-10-20T14:55:10.537Z,98410.13
2023-10-20T14:57:57.332Z,98404.84
2023-10-20T15:00:48.781Z,98380.75
2023-10-20T15:03:36.002Z,98394.09
2023-10-20T15:06:23.233Z,98405.44
2023-10-20T15:09:12.611Z,98394.34
2023-10-20T15:12:01.085Z,98395.06
2023-10-20T15:14:47.923Z,98395.72
2023-10-20T15:17:34.919Z,98399.34
2023-10-20T15:20:23.252Z,98397.97
2023-10-20T15:23:17.243Z,98405.28
2023-10-20T15:26:06.765Z,98404.69
2023-10-20T15:28:55.139Z,98405.50
2023-10-20T15:31:42.665Z,98394.25
2023-10-20T15:34:29.775Z,98400.97
2023-10-20T15:37:16.348Z,98388.66
2023-10-20T15:40:17.415Z,98376.78
2023-10-20T15:43:06.193Z,98373.09
2023-10-20T15:45:54.371Z,98375.47
2023-10-20T15:48:41.319Z,98388.25
2023-10-20T15:51:28.139Z,98387.75
2023-10-20T15:54:19.779Z,98380.28
2023-10-20T15:57:08.705Z,98384.03
2023-10-20T15:59:57.513Z,98398.94
2023-10-20T16:02:45.532Z,98407.50
2023-10-20T16:05:32.699Z,98411.53
2023-10-20T16:08:19.588Z,98410.69
2023-10-20T16:11:07.245Z,98388.28
2023-10-20T16:13:53.912Z,98398.66
2023-10-20T16:16:40.901Z,98395.09
2023-10-20T16:19:29.279Z,98402.22
2023-10-20T16:22:16.114Z,98362.34
2023-10-20T16:25:03.479Z,98398.66
2023-10-20T16:27:50.295Z,98390.81
2023-10-20T16:30:37.378Z,98405.44
2023-10-20T16:33:24.791Z,98411.09
2023-10-20T16:36:13.448Z,98418.22
2023-10-20T16:39:00.539Z,98406.81
2023-10-20T16:41:47.642Z,98385.44
2023-10-20T16:44:34.491Z,98429.22
2023-10-20T16:47:21.551Z,98434.03
2023-10-20T16:50:08.757Z,98425.03
2023-10-20T16:52:58.593Z,98420.66
2023-10-20T16:55:45.216Z,98412.38
2023-10-20T16:58:32.240Z,98397.81
2023-10-20T17:01:21.119Z,98413.72
2023-10-20T17:04:08.065Z,98424.88
2023-10-20T17:06:55.473Z,98423.66
2023-10-20T17:09:43.461Z,98421.06
2023-10-20T17:12:30.408Z,98412.59
2023-10-20T17:15:17.762Z,98411.16
2023-10-20T17:18:07.623Z,98405.97
2023-10-20T17:20:55.739Z,98406.75
2023-10-20T17:23:43.869Z,98403.59
2023-10-20T17:26:31.941Z,98414.59
2023-10-20T17:29:18.848Z,98402.47
2023-10-20T17:32:05.894Z,98399.00
2023-10-20T17:34:52.597Z,98404.00
2023-10-20T17:37:41.600Z,98426.47
2023-10-20T17:40:28.302Z,98432.47
2023-10-20T17:43:16.548Z,98419.66
2023-10-20T17:46:05.346Z,98415.63
2023-10-20T17:48:52.672Z,98418.03
2023-10-20T17:51:39.349Z,98409.72
2023-10-20T17:54:29.105Z,98415.06
2023-10-20T17:57:16.568Z,98418.59
2023-10-20T18:00:07.100Z,98417.09
2023-10-20T18:03:01.246Z,98405.00
2023-10-20T18:05:49.941Z,98403.34
2023-10-20T18:08:40.243Z,98399.09
2023-10-20T18:11:27.433Z,98398.69
2023-10-20T18:14:14.369Z,98387.75
2023-10-20T18:17:02.982Z,98404.50
2023-10-20T18:19:49.530Z,98408.19
2023-10-20T18:22:36.529Z,98405.72
2023-10-20T18:25:23.561Z,98424.13
2023-10-20T18:28:15.315Z,98404.97
2023-10-20T18:31:13.435Z,98405.94
2023-10-20T18:34:03.796Z,98423.38
2023-10-20T18:36:52.660Z,98412.91
2023-10-20T18:39:39.580Z,98452.41
2023-10-20T18:42:26.613Z,98472.97
2023-10-20T18:45:14.100Z,98495.69
2023-10-20T18:48:02.061Z,98502.19
2023-10-20T18:50:50.655Z,98494.50
2023-10-20T18:53:37.573Z,98486.53
2023-10-20T18:56:27.674Z,98484.81
2023-10-20T18:59:14.924Z,98475.47
2023-10-20T19:02:01.997Z,98468.25
2023-10-20T19:04:49.006Z,98450.91
2023-10-20T19:07:37.272Z,98458.53
2023-10-20T19:10:24.821Z,98484.28
2023-10-20T19:13:12.049Z,98497.91
2023-10-20T19:15:59.636Z,98516.09
2023-10-20T19:18:46.740Z,98530.31
2023-10-20T19:21:33.610Z,98513.44
2023-10-20T19:24:23.803Z,98506.50
2023-10-20T19:27:10.842Z,98503.06
2023-10-20T19:29:57.648Z,98487.94
2023-10-20T19:32:44.637Z,98510.44
2023-10-20T19:35:31.230Z,98523.03
2023-10-20T19:38:18.674Z,98532.84
2023-10-20T19:41:08.129Z,98535.66
2023-10-20T19:43:55.428Z,98531.47
2023-10-20T19:46:42.241Z,98545.59
2023-10-20T19:49:29.235Z,98531.72
2023-10-20T19:52:16.301Z,98517.59
2023-10-20T19:55:03.109Z,98508.34
2023-10-20T19:57:51.462Z,98523.47
2023-10-20T20:00:38.775Z,98530.38
2023-10-20T20:03:25.642Z,98527.00
2023-10-20T20:06:19.367Z,98529.19
2023-10-20T20:09:08.101Z,98505.84
2023-10-20T20:12:04.869Z,98483.00
2023-10-20T20:15:05.981Z,98485.00
2023-10-20T20:17:57.762Z,98458.72
2023-10-20T20:20:45.125Z,98506.75
2023-10-20T20:23:32.537Z,98505.72
2023-10-20T20:26:20.954Z,98490.28
2023-10-20T20:29:08.082Z,98490.06
2023-10-20T20:31:56.558Z,98501.56
2023-10-20T20:34:44.431Z,98481.91
2023-10-20T20:37:31.819Z,98485.06
2023-10-20T20:40:19.873Z,98503.91
2023-10-20T20:43:09.024Z,98521.16
2023-10-20T20:45:57.844Z,98541.84
2023-10-20T20:48:49.241Z,98521.25
2023-10-20T20:51:38.947Z,98517.03
2023-10-20T20:54:27.010Z,98513.47
2023-10-20T20:57:15.067Z,98517.44
2023-10-20T21:00:03.065Z,98510.94
2023-10-20T21:02:50.704Z,98470.44
2023-10-20T21:05:40.826Z,98511.81
2023-10-20T21:08:29.429Z,98508.06
2023-10-20T21:11:17.272Z,98514.53
2023-10-20T21:14:05.836Z,98512.63
2023-10-20T21:16:53.441Z,98511.16
2023-10-20T21:19:39.964Z,98523.31
2023-10-20T21:22:28.378Z,98534.59
2023-10-20T21:25:15.514Z,98534.81
2023-10-20T21:28:02.222Z,98519.53
2023-10-20T21:30:49.257Z,98526.03
2023-10-20T21:33:36.781Z,98528.13
2023-10-20T21:36:25.032Z,98522.25
2023-10-20T21:39:15.059Z,98523.66
2023-10-20T21:42:03.526Z,98492.63
2023-10-20T21:44:51.532Z,98482.78
2023-10-20T21:47:38.691Z,98509.66
2023-10-20T21:50:25.487Z,98504.28
2023-10-20T21:53:12.234Z,98491.25
2023-10-20T21:56:04.975Z,98476.63
2023-10-20T21:58:53.274Z,98494.13
2023-10-20T22:01:40.410Z,98497.50
2023-10-20T22:04:28.242Z,98516.59
2023-10-20T22:07:14.865Z,98510.97
2023-10-20T22:10:01.880Z,98519.53
2023-10-20T22:12:53.084Z,98521.00
2023-10-20T22:15:39.924Z,98538.31
2023-10-20T22:18:27.863Z,98536.88
2023-10-20T22:21:15.069Z,98540.03
2023-10-20T22:24:02.117Z,98540.72
2023-10-20T22:26:48.877Z,98535.94
2023-10-20T22:29:37.740Z,98533.47
2023-10-20T22:32:24.720Z,98535.59
2023-10-20T22:35:11.535Z,98531.22
2023-10-20T22:37:58.938Z,98539.38
2023-10-20T22:40:45.563Z,98527.91
2023-10-20T22:43:32.396Z,98525.28
2023-10-20T22:46:21.391Z,98517.78
2023-10-20T22:49:08.117Z,98516.66
2023-10-20T22:51:55.178Z,98507.13
2023-10-20T22:54:42.030Z,98520.78
2023-10-20T22:57:29.044Z,98534.34
2023-10-20T23:00:18.005Z,98529.06
2023-10-20T23:03:06.394Z,98526.81
2023-10-20T23:05:53.171Z,98547.34
2023-10-20T23:08:40.148Z,98539.81
2023-10-20T23:11:27.160Z,98544.00
2023-10-20T23:14:15.044Z,98542.13
2023-10-20T23:17:01.959Z,98543.16
2023-10-20T23:19:50.354Z,98550.88
2023-10-20T23:22:37.330Z,98549.84
2023-10-20T23:25:24.359Z,98549.84
2023-10-20T23:28:11.280Z,98565.13
2023-10-20T23:30:58.283Z,98578.50
2023-10-20T23:33:45.249Z,98588.56
2023-10-20T23:36:33.634Z,98585.38
2023-10-20T23:39:20.680Z,98577.03
2023-10-20T23:42:07.769Z,98580.63
2023-10-20T23:44:54.689Z,98582.06
2023-10-20T23:47:42.738Z,98591.91
2023-10-20T23:50:29.829Z,98601.91
2023-10-20T23:53:18.105Z,98610.47
2023-10-20T23:56:07.251Z,98611.72
2023-10-20T23:58:53.906Z,98617.34
